createdAt,value
2022-12-27T00:00:04.287Z,5.3
2022-12-27T00:02:04.351Z,5.4
2022-12-27T00:03:04.935Z,5.5
2022-12-27T00:04:05.135Z,5.7
2022-12-27T00:05:04.843Z,5.7
2022-12-27T00:07:04.280Z,5.7
2022-12-27T00:08:04.831Z,5.5
2022-12-27T00:09:04.261Z,5.5
2022-12-27T00:10:04.259Z,5.5
2022-12-27T00:12:04.921Z,5.4
2022-12-27T00:13:04.301Z,5.3
2022-12-27T00:14:04.268Z,5.2
2022-12-27T00:15:05.044Z,5.3
2022-12-27T00:17:04.356Z,5.4
2022-12-27T00:18:04.762Z,5.4
2022-12-27T00:20:11.019Z,5.4
2022-12-27T00:21:04.271Z,5.5
2022-12-27T00:22:04.267Z,5.6
2022-12-27T00:23:04.270Z,5.6
2022-12-27T00:24:04.274Z,5.4
2022-12-27T00:25:04.636Z,5.4
2022-12-27T00:26:04.724Z,5.5
2022-12-27T00:28:04.843Z,5.6
2022-12-27T00:30:04.498Z,5.4
2022-12-27T00:31:04.281Z,5.4
2022-12-27T00:32:04.397Z,5.5
2022-12-27T00:33:04.287Z,5.6
2022-12-27T00:34:04.978Z,5.6
2022-12-27T00:35:04.507Z,5.7
2022-12-27T00:36:04.273Z,5.6
2022-12-27T00:37:04.286Z,5.8
2022-12-27T00:39:04.648Z,5.9
2022-12-27T00:40:05.062Z,5.7
2022-12-27T00:41:04.521Z,5.6
2022-12-27T00:42:04.277Z,5.5
2022-12-27T00:44:04.342Z,5.6
2022-12-27T00:45:04.963Z,5.7
2022-12-27T00:48:04.978Z,5.8
2022-12-27T00:50:04.949Z,5.6
2022-12-27T00:53:04.264Z,5.5
2022-12-27T00:54:05.429Z,5.5
2022-12-27T00:55:04.265Z,5.5
2022-12-27T00:56:04.266Z,5.6
2022-12-27T00:57:04.375Z,5.5
2022-12-27T00:58:04.691Z,5.5
2022-12-27T01:00:10.114Z,5.5
2022-12-27T01:01:05.035Z,5.4
2022-12-27T01:02:04.412Z,5.1
2022-12-27T01:03:05.289Z,5.2
2022-12-27T01:06:04.279Z,5.4
2022-12-27T01:09:04.255Z,5.6
2022-12-27T01:10:04.262Z,5.5
2022-12-27T01:11:04.267Z,5.6
2022-12-27T01:14:04.262Z,5.5
2022-12-27T01:15:04.255Z,5.5
2022-12-27T01:16:04.271Z,5.3
2022-12-27T01:17:04.690Z,5.4
2022-12-27T01:18:04.263Z,5.3
2022-12-27T01:19:04.292Z,5.4
2022-12-27T01:22:05.013Z,5.5
2022-12-27T01:23:05.177Z,5.6
2022-12-27T01:24:04.268Z,5.4
2022-12-27T01:26:04.424Z,5.5
2022-12-27T01:27:04.269Z,5.6
2022-12-27T01:29:04.611Z,5.4
2022-12-27T01:32:04.307Z,5.3
2022-12-27T01:34:04.973Z,5.4
2022-12-27T01:35:04.754Z,5.4
2022-12-27T01:36:04.448Z,5.2
2022-12-27T01:37:04.255Z,5.3
2022-12-27T01:38:04.258Z,5.5
2022-12-27T01:41:04.284Z,5.2
2022-12-27T01:42:04.271Z,5.3
2022-12-27T01:43:04.911Z,5.3
2022-12-27T01:46:04.488Z,5.4
2022-12-27T01:47:04.263Z,5.5
2022-12-27T01:48:04.264Z,5.6
2022-12-27T01:49:05.385Z,5.6
2022-12-27T01:50:04.710Z,5.6
2022-12-27T01:51:04.253Z,5.6
2022-12-27T01:53:04.389Z,5.5
2022-12-27T01:54:04.559Z,5.5
2022-12-27T01:55:04.268Z,5.3
2022-12-27T01:56:04.268Z,5.4
2022-12-27T01:57:04.251Z,5.5
2022-12-27T01:58:04.368Z,5.4
2022-12-27T01:59:04.291Z,5.5
2022-12-27T02:02:04.530Z,5.6
2022-12-27T02:03:04.688Z,5.5
2022-12-27T02:04:04.321Z,5.5
2022-12-27T02:07:04.549Z,5.1
2022-12-27T02:08:04.255Z,5.3
2022-12-27T02:09:04.728Z,5.2
2022-12-27T02:11:04.263Z,5.2
2022-12-27T02:12:04.264Z,5.3
2022-12-27T02:14:04.355Z,5.6
2022-12-27T02:16:04.682Z,5.2
2022-12-27T02:17:04.850Z,5.1
2022-12-27T02:18:04.731Z,5
2022-12-27T02:19:04.254Z,5.2
2022-12-27T02:20:05.086Z,5.3
2022-12-27T02:21:04.362Z,5.1
2022-12-27T02:22:04.887Z,5.2
2022-12-27T02:23:04.266Z,5.3
2022-12-27T02:24:04.649Z,5.4
2022-12-27T02:25:04.616Z,5.3
2022-12-27T02:27:04.254Z,5.3
2022-12-27T02:28:04.258Z,5.3
2022-12-27T02:29:04.779Z,5.4
2022-12-27T02:30:04.948Z,5.3
2022-12-27T02:31:04.295Z,5.4
2022-12-27T02:34:04.533Z,5.2
2022-12-27T02:35:04.739Z,5
2022-12-27T02:36:04.264Z,5.2
2022-12-27T02:38:04.840Z,5.4
2022-12-27T02:39:04.599Z,5.4
2022-12-27T02:41:05.091Z,5.4
2022-12-27T02:42:04.256Z,5.3
2022-12-27T02:43:04.592Z,5.3
2022-12-27T02:44:04.266Z,5.3
2022-12-27T02:46:04.305Z,5.4
2022-12-27T02:47:04.795Z,5.4
2022-12-27T02:48:04.928Z,5.3
2022-12-27T02:50:04.360Z,5.2
2022-12-27T02:51:04.252Z,5.1
2022-12-27T02:52:05.161Z,5
2022-12-27T02:55:04.283Z,5.2
2022-12-27T02:56:04.247Z,5.2
2022-12-27T02:57:04.249Z,5.3
2022-12-27T02:59:04.821Z,5.3
2022-12-27T03:00:04.270Z,5.4
2022-12-27T03:02:04.529Z,5.4
2022-12-27T03:03:04.265Z,5.4
2022-12-27T03:04:04.248Z,5.5
2022-12-27T03:05:04.249Z,5.5
2022-12-27T03:07:04.571Z,5.5
2022-12-27T03:08:04.252Z,5.6
2022-12-27T03:09:04.273Z,5.8
2022-12-27T03:10:04.304Z,5.9
2022-12-27T03:11:04.247Z,5.9
2022-12-27T03:12:04.457Z,5.6
2022-12-27T03:13:04.269Z,5.7
2022-12-27T03:15:04.564Z,5.5
2022-12-27T03:16:04.286Z,5.5
2022-12-27T03:17:04.270Z,5.5
2022-12-27T03:21:04.565Z,5.3
2022-12-27T03:22:04.439Z,5.3
2022-12-27T03:23:04.247Z,5.3
2022-12-27T03:24:04.264Z,5.4
2022-12-27T03:26:04.246Z,5.6
2022-12-27T03:28:04.245Z,5.7
2022-12-27T03:29:04.275Z,5.5
2022-12-27T03:30:04.243Z,5.6
2022-12-27T03:31:04.471Z,5.6
2022-12-27T03:32:04.284Z,5.4
2022-12-27T03:33:04.374Z,5.3
2022-12-27T03:34:04.906Z,5.4
2022-12-27T03:35:04.413Z,5.4
2022-12-27T03:36:04.238Z,5.4
2022-12-27T03:37:04.756Z,5.4
2022-12-27T03:39:04.249Z,5.6
2022-12-27T03:40:04.823Z,5.3
2022-12-27T03:41:04.245Z,5.3
2022-12-27T03:42:04.244Z,5.5
2022-12-27T03:43:04.357Z,5.6
2022-12-27T03:44:04.251Z,5.6
2022-12-27T03:45:04.252Z,5.7
2022-12-27T03:47:04.913Z,5.7
2022-12-27T03:48:04.754Z,5.7
2022-12-27T03:49:04.284Z,5.8
2022-12-27T03:50:04.248Z,6
2022-12-27T03:51:04.315Z,5.9
2022-12-27T03:52:04.747Z,6
2022-12-27T03:55:04.245Z,6
2022-12-27T03:56:04.560Z,6.1
2022-12-27T03:57:04.503Z,6.2
2022-12-27T04:00:04.257Z,5.9
2022-12-27T04:01:04.929Z,5.9
2022-12-27T04:02:04.405Z,5.8
2022-12-27T04:03:04.305Z,5.9
2022-12-27T04:04:04.241Z,5.9
2022-12-27T04:05:04.242Z,5.8
2022-12-27T04:06:04.242Z,5.8
2022-12-27T04:08:04.287Z,5.8
2022-12-27T04:09:04.980Z,5.9
2022-12-27T04:10:04.241Z,5.7
2022-12-27T04:11:04.252Z,5.8
2022-12-27T04:12:04.273Z,5.9
2022-12-27T04:13:04.241Z,6
2022-12-27T04:14:04.716Z,6
2022-12-27T04:16:04.289Z,5.8
2022-12-27T04:17:04.254Z,5.8
2022-12-27T04:18:04.256Z,5.9
2022-12-27T04:19:04.269Z,5.8
2022-12-27T04:21:04.275Z,5.9
2022-12-27T04:22:04.273Z,6
2022-12-27T04:24:04.277Z,6
2022-12-27T04:25:04.253Z,6.1
2022-12-27T04:26:04.350Z,6
2022-12-27T04:27:04.254Z,5.9
2022-12-27T04:29:04.417Z,5.9
2022-12-27T04:30:04.232Z,6
2022-12-27T04:31:04.362Z,6
2022-12-27T04:32:04.240Z,6
2022-12-27T04:33:04.247Z,5.9
2022-12-27T04:34:04.537Z,6
2022-12-27T04:35:04.247Z,6
2022-12-27T04:37:04.260Z,6.1
2022-12-27T04:38:04.240Z,6.1
2022-12-27T04:39:04.248Z,6.1
2022-12-27T04:40:04.247Z,6.1
2022-12-27T04:42:04.872Z,5.9
2022-12-27T04:43:04.410Z,5.9
2022-12-27T04:44:04.743Z,5.9
2022-12-27T04:45:06.859Z,5.9
2022-12-27T04:46:04.265Z,5.9
2022-12-27T04:48:04.251Z,6
2022-12-27T04:49:04.739Z,5.8
2022-12-27T04:50:04.556Z,5.9
2022-12-27T04:51:04.244Z,6.1
2022-12-27T04:53:04.312Z,6.2
2022-12-27T04:54:04.671Z,6.1
2022-12-27T04:55:04.240Z,5.9
2022-12-27T04:56:04.883Z,5.8
2022-12-27T04:58:04.917Z,5.9
2022-12-27T04:59:05.015Z,5.7
2022-12-27T05:01:06.705Z,5.7
2022-12-27T05:02:04.491Z,5.7
2022-12-27T05:03:04.371Z,5.9
2022-12-27T05:04:04.243Z,6
2022-12-27T05:05:04.302Z,6
2022-12-27T05:06:04.247Z,6
2022-12-27T05:07:04.235Z,6.1
2022-12-27T05:09:04.890Z,6
2022-12-27T05:10:04.246Z,6
2022-12-27T05:11:04.270Z,5.9
2022-12-27T05:12:04.236Z,6.1
2022-12-27T05:14:04.246Z,6.2
2022-12-27T05:15:04.421Z,6.3
2022-12-27T05:16:04.306Z,6.3
2022-12-27T05:17:04.414Z,6.3
2022-12-27T05:18:04.226Z,6.4
2022-12-27T05:19:04.939Z,6.4
2022-12-27T05:20:04.230Z,6.2
2022-12-27T05:22:04.236Z,6.3
2022-12-27T05:23:04.237Z,6.4
2022-12-27T05:24:05.822Z,6.4
2022-12-27T05:25:04.256Z,6.4
2022-12-27T05:26:05.127Z,6.4
2022-12-27T05:27:04.276Z,6.2
2022-12-27T05:28:04.825Z,6.1
2022-12-27T05:30:04.979Z,6.2
2022-12-27T05:31:04.288Z,6.3
2022-12-27T05:32:08.030Z,6.1
2022-12-27T05:33:04.229Z,6.1
2022-12-27T05:35:04.733Z,6.2
2022-12-27T05:36:04.259Z,6.2
2022-12-27T05:38:04.228Z,6.4
2022-12-27T05:39:05.076Z,6.3
2022-12-27T05:40:04.260Z,6.2
2022-12-27T05:41:04.283Z,6.3
2022-12-27T05:43:04.332Z,6.2
2022-12-27T05:44:07.431Z,6.2
2022-12-27T05:46:04.230Z,5.9
2022-12-27T05:47:04.276Z,5.9
2022-12-27T05:49:05.109Z,6
2022-12-27T05:50:04.244Z,6
2022-12-27T05:51:04.227Z,6.1
2022-12-27T05:52:04.546Z,6
2022-12-27T05:54:04.237Z,6
2022-12-27T05:55:04.425Z,6
2022-12-27T05:56:04.243Z,6.1
2022-12-27T05:57:04.587Z,6
2022-12-27T05:58:04.226Z,6.2
2022-12-27T05:59:04.233Z,6.1
2022-12-27T06:00:04.241Z,6.2
2022-12-27T06:02:05.323Z,6.3
2022-12-27T06:03:04.930Z,6.4
2022-12-27T06:04:04.239Z,6.4
2022-12-27T06:05:04.925Z,6.2
2022-12-27T06:06:04.550Z,6.2
2022-12-27T06:07:04.680Z,6.2
2022-12-27T06:10:04.228Z,6.2
2022-12-27T06:11:04.947Z,6.1
2022-12-27T06:12:04.808Z,6.1
2022-12-27T06:15:04.689Z,6.2
2022-12-27T06:16:04.575Z,6.3
2022-12-27T06:17:04.232Z,6.2
2022-12-27T06:18:04.286Z,6.2
2022-12-27T06:19:04.517Z,6.3
2022-12-27T06:20:04.915Z,6.4
2022-12-27T06:21:04.249Z,6.4
2022-12-27T06:23:04.232Z,6.6
2022-12-27T06:24:04.237Z,6.3
2022-12-27T06:26:04.897Z,6.3
2022-12-27T06:27:04.225Z,6.3
2022-12-27T06:28:04.242Z,6.3
2022-12-27T06:29:04.300Z,6.3
2022-12-27T06:31:04.231Z,6.3
2022-12-27T06:32:04.293Z,6.2
2022-12-27T06:33:04.242Z,6.2
2022-12-27T06:34:04.240Z,6.3
2022-12-27T06:36:04.938Z,6.3
2022-12-27T06:38:04.257Z,6.2
2022-12-27T06:39:04.368Z,6.4
2022-12-27T06:40:04.389Z,6.5
2022-12-27T06:41:04.248Z,6.4
2022-12-27T06:42:04.240Z,6.2
2022-12-27T06:43:04.749Z,6.3
2022-12-27T06:44:04.692Z,6.3
2022-12-27T06:45:04.256Z,6.1
2022-12-27T06:47:05.014Z,6
2022-12-27T06:48:04.226Z,6.2
2022-12-27T06:49:04.224Z,6.2
2022-12-27T06:50:04.237Z,6.2
2022-12-27T06:52:04.235Z,6.1
2022-12-27T06:53:04.351Z,6.2
2022-12-27T06:55:04.920Z,6.1
2022-12-27T06:56:04.227Z,6.2
2022-12-27T06:57:04.734Z,6.2
2022-12-27T06:58:05.104Z,6.2
2022-12-27T06:59:04.710Z,6.4
2022-12-27T07:00:04.236Z,6.3
2022-12-27T07:01:04.322Z,6.3
2022-12-27T07:04:04.236Z,6.4
2022-12-27T07:05:04.229Z,6.3
2022-12-27T07:06:04.691Z,6.1
2022-12-27T07:09:05.119Z,6
2022-12-27T07:11:04.233Z,6
2022-12-27T07:12:04.228Z,6.1
2022-12-27T07:13:04.236Z,6.1
2022-12-27T07:14:04.278Z,6.2
2022-12-27T07:16:04.286Z,6.3
2022-12-27T07:17:04.872Z,6.3
2022-12-27T07:18:04.808Z,6.3
2022-12-27T07:19:04.718Z,6.3
2022-12-27T07:20:04.836Z,6.4
2022-12-27T07:21:04.679Z,6.3
2022-12-27T07:22:04.223Z,6.2
2022-12-27T07:24:04.220Z,6.1
2022-12-27T07:26:04.724Z,6.2
2022-12-27T07:27:04.217Z,6.2
2022-12-27T07:29:04.282Z,6.3
2022-12-27T07:30:04.229Z,6.2
2022-12-27T07:32:04.347Z,6.1
2022-12-27T07:34:04.875Z,5.9
2022-12-27T07:35:04.248Z,5.8
2022-12-27T07:37:04.762Z,5.8
2022-12-27T07:38:04.220Z,5.9
2022-12-27T07:39:04.231Z,6
2022-12-27T07:40:05.078Z,6
2022-12-27T07:42:08.406Z,6.1
2022-12-27T07:43:05.103Z,6.2
2022-12-27T07:44:04.345Z,6.3
2022-12-27T07:48:04.532Z,6.1
2022-12-27T07:49:04.233Z,6.3
2022-12-27T07:52:04.731Z,6.2
2022-12-27T07:53:04.676Z,6
2022-12-27T07:54:04.218Z,5.9
2022-12-27T07:56:04.351Z,6.2
2022-12-27T07:57:04.264Z,6.2
2022-12-27T07:58:04.222Z,6.2
2022-12-27T07:59:04.228Z,6.1
2022-12-27T08:00:05.033Z,5.9
2022-12-27T08:01:04.287Z,6
2022-12-27T08:02:04.496Z,6.1
2022-12-27T08:04:04.537Z,6
2022-12-27T08:05:04.228Z,6.1
2022-12-27T08:06:04.231Z,6.2
2022-12-27T08:07:04.229Z,6.1
2022-12-27T08:09:04.222Z,6.2
2022-12-27T08:10:04.235Z,6.3
2022-12-27T08:11:05.824Z,6.3
2022-12-27T08:12:04.219Z,6.3
2022-12-27T08:13:04.221Z,6.2
2022-12-27T08:14:04.217Z,6.1
2022-12-27T08:15:04.224Z,6.1
2022-12-27T08:17:04.427Z,6.1
2022-12-27T08:18:04.225Z,6.1
2022-12-27T08:19:08.390Z,6.2
2022-12-27T08:20:04.650Z,6.1
2022-12-27T08:21:04.222Z,6.1
2022-12-27T08:22:04.218Z,6.2
2022-12-27T08:23:04.230Z,6.3
2022-12-27T08:25:04.858Z,6.3
2022-12-27T08:26:04.352Z,6.4
2022-12-27T08:27:04.216Z,6.6
2022-12-27T08:28:04.223Z,6.7
2022-12-27T08:30:05.190Z,6.9
2022-12-27T08:31:05.041Z,7.1
2022-12-27T08:32:04.214Z,7.2
2022-12-27T08:33:04.445Z,7.3
2022-12-27T08:34:04.333Z,7.1
2022-12-27T08:35:25.195Z,7.1
2022-12-27T08:36:11.432Z,7.1
2022-12-27T08:38:04.815Z,7
2022-12-27T08:40:04.236Z,7
2022-12-27T08:41:03.415Z,6.9
2022-12-27T08:42:04.237Z,7
2022-12-27T08:43:04.358Z,7
2022-12-27T08:44:04.742Z,7
2022-12-27T08:45:04.896Z,7
2022-12-27T08:46:04.646Z,7.1
2022-12-27T08:47:04.211Z,7.3
2022-12-27T08:49:04.218Z,7.4
2022-12-27T08:50:04.843Z,7.4
2022-12-27T08:51:07.403Z,7.7
2022-12-27T08:52:04.272Z,7.7
2022-12-27T08:53:04.241Z,7.8
2022-12-27T08:54:04.854Z,7.9
2022-12-27T08:55:04.490Z,8
2022-12-27T08:57:04.234Z,8.5
2022-12-27T08:58:04.215Z,8.7
2022-12-27T08:59:04.776Z,9.1
2022-12-27T09:00:04.217Z,9.3
2022-12-27T09:02:04.297Z,9.9
2022-12-27T09:03:04.265Z,10.1
2022-12-27T09:05:04.206Z,10.2
2022-12-27T09:06:04.815Z,10.2
2022-12-27T09:08:04.770Z,9.9
2022-12-27T09:10:04.777Z,10
2022-12-27T09:11:04.215Z,9.5
2022-12-27T09:12:08.826Z,9.5
2022-12-27T09:13:04.640Z,9.4
2022-12-27T09:14:04.223Z,9.6
2022-12-27T09:16:04.951Z,9.6
2022-12-27T09:18:04.811Z,10
2022-12-27T09:19:04.840Z,10.2
2022-12-27T09:20:04.718Z,10.2
2022-12-27T09:21:04.228Z,10.2
2022-12-27T09:24:04.516Z,10.4
2022-12-27T09:25:04.878Z,10.7
2022-12-27T09:26:04.261Z,10.9
2022-12-27T09:27:04.253Z,10
2022-12-27T09:29:04.281Z,10
2022-12-27T09:32:04.879Z,10.1
2022-12-27T09:34:04.219Z,10.5
2022-12-27T09:35:04.985Z,10.6
2022-12-27T09:36:04.217Z,10.8
2022-12-27T09:37:04.786Z,11
2022-12-27T09:39:04.213Z,10.8
2022-12-27T09:40:04.222Z,10.8
2022-12-27T09:41:04.404Z,10.7
2022-12-27T09:44:04.356Z,10.6
2022-12-27T09:45:04.888Z,10.7
2022-12-27T09:46:04.266Z,10.8
2022-12-27T09:47:04.211Z,10.8
2022-12-27T09:48:04.213Z,11
2022-12-27T09:50:04.443Z,11.5
2022-12-27T09:51:04.217Z,11.6
2022-12-27T09:52:05.077Z,11.6
2022-12-27T09:53:04.210Z,11.7
2022-12-27T09:54:04.247Z,11.9
2022-12-27T09:55:05.723Z,12.1
2022-12-27T09:56:04.704Z,12.1
2022-12-27T09:58:05.026Z,12.4
2022-12-27T09:59:04.219Z,12.7
2022-12-27T10:00:04.219Z,13.1
2022-12-27T10:01:04.972Z,13.3
2022-12-27T10:03:04.215Z,13.3
2022-12-27T10:04:04.217Z,13.3
2022-12-27T10:05:21.720Z,13.3
2022-12-27T10:06:04.843Z,13.3
2022-12-27T10:07:04.220Z,13.2
2022-12-27T10:08:03.295Z,13.1
2022-12-27T10:09:04.215Z,12.8
2022-12-27T10:11:04.988Z,12.9
2022-12-27T10:12:05.033Z,12.9
2022-12-27T10:13:04.227Z,12.8
2022-12-27T10:14:04.565Z,12.9
2022-12-27T10:16:04.655Z,12.6
2022-12-27T10:17:04.862Z,12.8
2022-12-27T10:19:04.225Z,13
2022-12-27T10:20:04.997Z,13
2022-12-27T10:21:04.349Z,12.9
2022-12-27T10:22:04.215Z,12.5
2022-12-27T10:24:04.212Z,12.5
2022-12-27T10:25:04.289Z,12.5
2022-12-27T10:26:04.290Z,12.5
2022-12-27T10:27:04.321Z,12.5
2022-12-27T10:28:04.228Z,12.4
2022-12-27T10:29:04.245Z,12.3
2022-12-27T10:30:04.244Z,12.2
2022-12-27T10:32:04.245Z,12.4
2022-12-27T10:33:04.297Z,12.4
2022-12-27T10:34:09.018Z,12.4
2022-12-27T10:35:04.219Z,12.2
2022-12-27T10:36:05.082Z,11.9
2022-12-27T10:37:04.722Z,11.8
2022-12-27T10:38:04.215Z,11.8
2022-12-27T10:40:04.768Z,11.5
2022-12-27T10:41:05.390Z,11.3
2022-12-27T10:42:05.137Z,11.2
2022-12-27T10:43:04.212Z,11.1
2022-12-27T10:44:05.033Z,11.1
2022-12-27T10:45:04.891Z,11
2022-12-27T10:46:04.836Z,10.9
2022-12-27T10:47:04.860Z,10.9
2022-12-27T10:49:20.749Z,10.8
2022-12-27T10:51:04.330Z,10.5
2022-12-27T10:53:04.613Z,10.4
2022-12-27T10:54:04.235Z,10.2
2022-12-27T10:58:04.224Z,10.2
2022-12-27T10:59:04.226Z,10.2
2022-12-27T11:00:04.216Z,10
2022-12-27T11:01:04.814Z,10.1
2022-12-27T11:02:04.401Z,10.1
2022-12-27T11:05:04.479Z,10.1
2022-12-27T11:06:05.159Z,10.1
2022-12-27T11:07:04.942Z,10.1
2022-12-27T11:08:04.221Z,10.1
2022-12-27T11:09:04.230Z,10.1
2022-12-27T11:10:04.222Z,10.2
2022-12-27T11:12:04.221Z,10.3
2022-12-27T11:13:04.228Z,10.3
2022-12-27T11:14:04.881Z,10.1
2022-12-27T11:15:04.217Z,10.2
2022-12-27T11:18:04.349Z,10.4
2022-12-27T11:19:04.386Z,10.4
2022-12-27T11:20:04.243Z,10.3
2022-12-27T11:21:04.673Z,10.4
2022-12-27T11:23:04.228Z,10.8
2022-12-27T11:25:04.228Z,10.9
2022-12-27T11:26:04.621Z,11
2022-12-27T11:27:04.235Z,11.1
2022-12-27T11:28:04.302Z,11.2
2022-12-27T11:29:04.216Z,11.3
2022-12-27T11:30:04.803Z,11
2022-12-27T11:33:04.261Z,10.9
2022-12-27T11:35:04.520Z,11
2022-12-27T11:36:04.210Z,11
2022-12-27T11:38:04.218Z,11.2
2022-12-27T11:40:04.219Z,11.3
2022-12-27T11:41:04.225Z,11.3
2022-12-27T11:42:04.466Z,11.2
2022-12-27T11:43:04.253Z,11.1
2022-12-27T11:44:04.219Z,11.1
2022-12-27T11:45:04.783Z,11.2
2022-12-27T11:46:04.233Z,11.1
2022-12-27T11:47:04.428Z,11.1
2022-12-27T11:48:04.238Z,11
2022-12-27T11:49:04.818Z,11.2
2022-12-27T11:50:04.708Z,11.4
2022-12-27T11:52:04.374Z,11.5
2022-12-27T11:53:04.225Z,11.6
2022-12-27T11:54:04.231Z,11.7
2022-12-27T11:55:04.263Z,11.8
2022-12-27T11:57:04.228Z,12.3
2022-12-27T11:58:04.216Z,12.6
2022-12-27T11:59:04.542Z,12.6
2022-12-27T12:00:04.225Z,12.7
2022-12-27T12:01:05.605Z,12.7
2022-12-27T12:02:05.007Z,12.7
2022-12-27T12:03:04.412Z,12.7
2022-12-27T12:04:04.235Z,12.6
2022-12-27T12:05:04.588Z,12.5
2022-12-27T12:06:04.226Z,12.5
2022-12-27T12:07:04.230Z,12.6
2022-12-27T12:08:05.052Z,12.5
2022-12-27T12:09:04.236Z,12.6
2022-12-27T12:10:04.233Z,12.7
2022-12-27T12:11:04.837Z,12.7
2022-12-27T12:13:04.220Z,12.8
2022-12-27T12:14:04.576Z,12.8
2022-12-27T12:15:04.226Z,12.9
2022-12-27T12:16:04.545Z,12.9
2022-12-27T12:17:04.241Z,12.4
2022-12-27T12:19:04.256Z,12.8
2022-12-27T12:20:04.239Z,13
2022-12-27T12:21:04.453Z,13
2022-12-27T12:22:04.773Z,13.1
2022-12-27T12:23:04.232Z,13.2
2022-12-27T12:24:04.689Z,13.3
2022-12-27T12:25:04.292Z,13.1
2022-12-27T12:26:04.827Z,13
2022-12-27T12:27:04.540Z,13.1
2022-12-27T12:28:17.466Z,13.1
2022-12-27T12:29:04.365Z,12.7
2022-12-27T12:30:04.594Z,12.3
2022-12-27T12:31:04.230Z,12.2
2022-12-27T12:32:04.844Z,12.1
2022-12-27T12:33:04.945Z,11.8
2022-12-27T12:34:04.870Z,11.4
2022-12-27T12:35:04.337Z,11.1
2022-12-27T12:36:04.228Z,10.9
2022-12-27T12:37:04.220Z,10.7
2022-12-27T12:38:04.255Z,10.5
2022-12-27T12:39:04.229Z,10.3
2022-12-27T12:40:04.218Z,10.3
2022-12-27T12:41:04.445Z,10.1
2022-12-27T12:42:04.363Z,9.8
2022-12-27T12:43:04.568Z,9.9
2022-12-27T12:44:04.241Z,9.8
2022-12-27T12:45:04.225Z,9.8
2022-12-27T12:46:04.470Z,9.7
2022-12-27T12:48:04.514Z,9.4
2022-12-27T12:49:04.220Z,9.5
2022-12-27T12:50:09.627Z,9.3
2022-12-27T12:51:04.232Z,9.2
2022-12-27T12:52:04.227Z,9.2
2022-12-27T12:53:04.229Z,9.2
2022-12-27T12:54:05.200Z,9.1
2022-12-27T12:56:04.264Z,8.7
2022-12-27T12:58:04.227Z,8.7
2022-12-27T12:59:04.705Z,8.8
2022-12-27T13:00:05.204Z,8.8
2022-12-27T13:01:04.588Z,8.6
2022-12-27T13:02:04.636Z,8.7
2022-12-27T13:04:04.241Z,8.9
2022-12-27T13:05:04.232Z,8.8
2022-12-27T13:06:04.983Z,8.7
2022-12-27T13:07:04.912Z,8.6
2022-12-27T13:09:04.229Z,8.3
2022-12-27T13:10:04.249Z,8.4
2022-12-27T13:11:04.223Z,8
2022-12-27T13:12:04.751Z,7.7
2022-12-27T13:13:04.228Z,7.8
2022-12-27T13:14:05.021Z,8
2022-12-27T13:15:04.226Z,8
2022-12-27T13:16:04.222Z,8.2
2022-12-27T13:18:04.245Z,8.5
2022-12-27T13:19:04.261Z,8.5
2022-12-27T13:20:04.251Z,8.6
2022-12-27T13:22:04.806Z,8.4
2022-12-27T13:24:04.229Z,8.5
2022-12-27T13:25:04.224Z,8.4
2022-12-27T13:26:04.249Z,8.4
2022-12-27T13:27:04.225Z,8.4
2022-12-27T13:29:04.289Z,8.8
2022-12-27T13:30:07.071Z,9.1
2022-12-27T13:32:04.261Z,9
2022-12-27T13:33:05.025Z,9.2
2022-12-27T13:34:04.234Z,9.3
2022-12-27T13:35:04.909Z,9.3
2022-12-27T13:37:04.305Z,9.1
2022-12-27T13:38:04.243Z,9
2022-12-27T13:40:04.991Z,8.6
2022-12-27T13:41:04.679Z,8.2
2022-12-27T13:42:04.224Z,8.3
2022-12-27T13:43:04.961Z,8.2
2022-12-27T13:45:04.235Z,8.6
2022-12-27T13:46:04.808Z,8.7
2022-12-27T13:47:04.731Z,8.8
2022-12-27T13:48:04.355Z,8.9
2022-12-27T13:50:04.644Z,8.7
2022-12-27T13:51:04.925Z,8.8
2022-12-27T13:53:04.722Z,8.9
2022-12-27T13:54:04.231Z,8.7
2022-12-27T13:55:04.627Z,8.6
2022-12-27T13:56:27.352Z,8.6
2022-12-27T13:58:04.223Z,8.5
2022-12-27T13:59:05.088Z,8.5
2022-12-27T14:01:04.276Z,8.3
2022-12-27T14:02:04.812Z,8.5
2022-12-27T14:03:05.107Z,8.4
2022-12-27T14:04:04.229Z,8.6
2022-12-27T14:06:04.225Z,8.9
2022-12-27T14:07:04.228Z,8.9
2022-12-27T14:08:04.269Z,8.6
2022-12-27T14:09:04.229Z,8.8
2022-12-27T14:11:04.318Z,9.1
2022-12-27T14:12:04.258Z,9
2022-12-27T14:14:04.242Z,9.1
2022-12-27T14:16:04.336Z,8.6
2022-12-27T14:17:04.224Z,8.7
2022-12-27T14:19:05.049Z,8.9
2022-12-27T14:20:04.253Z,8.9
2022-12-27T14:21:04.220Z,8.9
2022-12-27T14:22:04.600Z,9
2022-12-27T14:23:04.225Z,8.7
2022-12-27T14:25:04.227Z,8.2
2022-12-27T14:26:04.228Z,8.3
2022-12-27T14:27:04.841Z,8.3
2022-12-27T14:30:04.356Z,8.4
2022-12-27T14:31:05.294Z,8.3
2022-12-27T14:32:04.219Z,8.2
2022-12-27T14:33:04.230Z,8.1
2022-12-27T14:34:04.243Z,8.1
2022-12-27T14:35:04.293Z,8
2022-12-27T14:36:04.229Z,8.1
2022-12-27T14:38:04.572Z,8.1
2022-12-27T14:39:04.801Z,7.8
2022-12-27T14:40:04.227Z,7.7
2022-12-27T14:41:04.268Z,7.9
2022-12-27T14:42:04.968Z,8.1
2022-12-27T14:43:04.226Z,8.2
2022-12-27T14:44:04.228Z,8.2
2022-12-27T14:47:04.231Z,8.1
2022-12-27T14:48:04.391Z,8.2
2022-12-27T14:49:04.240Z,8.2
2022-12-27T14:51:08.030Z,8.3
2022-12-27T14:53:04.223Z,7.8
2022-12-27T14:55:04.260Z,7.9
2022-12-27T14:56:04.224Z,8
2022-12-27T14:59:04.744Z,8
2022-12-27T15:00:04.356Z,8.1
2022-12-27T15:01:04.368Z,8.2
2022-12-27T15:02:04.304Z,8.1
2022-12-27T15:03:04.350Z,8
2022-12-27T15:04:04.378Z,8.1
2022-12-27T15:05:04.227Z,7.8
2022-12-27T15:08:04.254Z,8.1
2022-12-27T15:09:07.331Z,8.1
2022-12-27T15:10:04.332Z,8.2
2022-12-27T15:12:04.740Z,8.2
2022-12-27T15:13:04.222Z,8.2
2022-12-27T15:14:04.224Z,8.3
2022-12-27T15:15:04.785Z,8.1
2022-12-27T15:16:04.260Z,7.9
2022-12-27T15:19:04.216Z,8
2022-12-27T15:20:04.255Z,8.1
2022-12-27T15:21:04.229Z,7.9
2022-12-27T15:23:04.225Z,7.8
2022-12-27T15:24:04.240Z,8
2022-12-27T15:26:04.388Z,8.1
2022-12-27T15:27:04.553Z,8.1
2022-12-27T15:29:05.048Z,7.8
2022-12-27T15:31:04.280Z,7.7
2022-12-27T15:32:04.229Z,7.8
2022-12-27T15:35:05.215Z,8.1
2022-12-27T15:36:04.222Z,8.3
2022-12-27T15:37:05.125Z,8.3
2022-12-27T15:39:04.221Z,8.3
2022-12-27T15:40:04.224Z,8.3
2022-12-27T15:41:04.254Z,8.1
2022-12-27T15:42:04.297Z,8.2
2022-12-27T15:44:04.284Z,8.1
2022-12-27T15:45:04.722Z,8
2022-12-27T15:47:04.281Z,8.1
2022-12-27T15:48:04.222Z,8.1
2022-12-27T15:49:04.965Z,8
2022-12-27T15:50:04.535Z,8
2022-12-27T15:52:04.218Z,8.1
2022-12-27T15:54:04.850Z,8.3
2022-12-27T15:55:04.229Z,8.3
2022-12-27T15:56:04.257Z,8.4
2022-12-27T15:57:04.342Z,8.3
2022-12-27T15:58:04.234Z,8.3
2022-12-27T16:01:04.219Z,8.4
2022-12-27T16:02:04.773Z,8.4
2022-12-27T16:03:04.446Z,8.6
2022-12-27T16:05:04.226Z,8.3
2022-12-27T16:06:04.831Z,8.3
2022-12-27T16:08:04.215Z,8.5
2022-12-27T16:09:04.217Z,8.5
2022-12-27T16:10:04.223Z,8.6
2022-12-27T16:11:04.216Z,8.6
2022-12-27T16:13:04.240Z,8.9
2022-12-27T16:14:04.208Z,8.9
2022-12-27T16:15:04.223Z,8.8
2022-12-27T16:16:04.259Z,8.8
2022-12-27T16:17:04.327Z,8.7
2022-12-27T16:18:04.225Z,8.6
2022-12-27T16:19:04.246Z,8.5
2022-12-27T16:20:05.064Z,8.4
2022-12-27T16:21:04.221Z,8.3
2022-12-27T16:22:04.219Z,8.3
2022-12-27T16:25:05.158Z,8.1
2022-12-27T16:26:04.715Z,8.1
2022-12-27T16:27:04.585Z,8.3
2022-12-27T16:30:04.276Z,8.3
2022-12-27T16:32:04.855Z,8.3
2022-12-27T16:33:04.247Z,8.3
2022-12-27T16:34:04.213Z,8
2022-12-27T16:35:04.655Z,8.1
2022-12-27T16:37:04.471Z,7.9
2022-12-27T16:40:04.228Z,8
2022-12-27T16:41:04.226Z,8
2022-12-27T16:42:04.210Z,8.2
2022-12-27T16:43:04.243Z,8.3
2022-12-27T16:45:04.214Z,8.1
2022-12-27T16:46:04.694Z,8.1
2022-12-27T16:47:04.368Z,8.1
2022-12-27T16:48:04.218Z,8.3
2022-12-27T16:49:04.218Z,8.3
2022-12-27T16:50:04.447Z,8.2
2022-12-27T16:51:04.214Z,8.2
2022-12-27T16:53:04.698Z,8.3
2022-12-27T16:54:04.366Z,8.1
2022-12-27T16:55:04.714Z,8.1
2022-12-27T16:56:04.221Z,8
2022-12-27T16:57:04.230Z,8.1
2022-12-27T16:58:04.211Z,8.2
2022-12-27T16:59:04.213Z,8.3
2022-12-27T17:01:04.869Z,7.9
2022-12-27T17:02:04.854Z,7.8
2022-12-27T17:03:04.394Z,7.8
2022-12-27T17:04:04.217Z,7.7
2022-12-27T17:07:04.225Z,7.7
2022-12-27T17:08:04.214Z,7.7
2022-12-27T17:09:04.254Z,7.7
2022-12-27T17:11:04.216Z,7.8
2022-12-27T17:12:04.218Z,7.9
2022-12-27T17:14:04.695Z,7.9
2022-12-27T17:15:04.990Z,7.9
2022-12-27T17:17:04.227Z,8
2022-12-27T17:18:04.871Z,7.8
2022-12-27T17:21:04.930Z,8
2022-12-27T17:22:04.208Z,8.1
2022-12-27T17:23:04.349Z,8.2
2022-12-27T17:25:04.255Z,8.1
2022-12-27T17:26:04.488Z,8
2022-12-27T17:27:04.215Z,7.8
2022-12-27T17:28:04.207Z,7.7
2022-12-27T17:29:04.401Z,7.6
2022-12-27T17:30:04.208Z,7.5
2022-12-27T17:31:05.057Z,7.5
2022-12-27T17:34:04.218Z,7.8
2022-12-27T17:35:04.401Z,7.8
2022-12-27T17:36:04.363Z,7.9
2022-12-27T17:38:04.223Z,7.6
2022-12-27T17:39:04.213Z,7.5
2022-12-27T17:41:04.305Z,7.6
2022-12-27T17:42:04.218Z,7.6
2022-12-27T17:43:05.060Z,7.8
2022-12-27T17:44:04.930Z,7.8
2022-12-27T17:46:04.305Z,7.7
2022-12-27T17:47:04.417Z,7.7
2022-12-27T17:48:03.674Z,7.7
2022-12-27T17:49:04.231Z,7.7
2022-12-27T17:50:04.214Z,7.7
2022-12-27T17:51:04.229Z,7.5
2022-12-27T17:52:04.211Z,7.6
2022-12-27T17:54:04.207Z,7.6
2022-12-27T17:55:04.501Z,7.6
2022-12-27T17:56:04.233Z,7.6
2022-12-27T17:57:04.762Z,7.8